Time,TemperatureF,DewpointF,PressureIn,WindDirection,WindDirectionDegrees,WindSpeedMPH,WindSpeedGustMPH,Humidity,HourlyPrecipIn,Conditions,Clouds,dailyrainin,SoftwareType,DateUTC
2013-03-08 00:04:00,20.0,16.0,30.38,South,180,0.0,2.0,84,0.00,SN,SN,0.00,WeatherDisplay:10.37,2013-03-08 06:04:00,
2013-03-08 00:14:00,19.6,15.8,30.39,ESE,118,0.0,2.0,85,0.00,SN,SN,0.00,WeatherDisplay:10.37,2013-03-08 06:14:00,
2013-03-08 00:24:00,19.2,15.7,30.39,East,94,0.0,2.0,86,0.00,SN,SN,0.00,WeatherDisplay:10.37,2013-03-08 06:24:00,
2013-03-08 00:33:00,19.0,15.3,30.39,SE,135,0.0,1.0,85,0.00,SN,SN,0.00,WeatherDisplay:10.37,2013-03-08 06:33:00,
2013-03-08 00:43:00,18.5,15.0,30.39,ESE,107,0.0,2.0,86,0.00,SN,SN,0.00,WeatherDisplay:10.37,2013-03-08 06:43:00,
2013-03-08 00:53:00,18.1,14.7,30.39,ESE,110,0.0,0.0,86,0.00,SN,SN,0.00,WeatherDisplay:10.37,2013-03-08 06:53:00,
2013-03-08 01:03:00,18.0,14.7,30.39,SE,135,0.0,0.0,87,0.00,SN,SN,0.00,WeatherDisplay:10.37,2013-03-08 07:03:00,
2013-03-08 01:13:00,18.2,15.8,30.40,SE,130,0.0,3.0,90,0.00,SN,SN,0.00,WeatherDisplay:10.37,2013-03-08 07:13:00,
2013-03-08 01:23:00,18.3,16.1,30.40,SE,140,0.0,5.0,91,0.00,SN,SN,0.00,WeatherDisplay:10.37,2013-03-08 07:23:00,
2013-03-08 01:33:00,17.8,15.9,30.40,South,178,0.0,1.0,92,0.00,SN,SN,0.00,WeatherDisplay:10.37,2013-03-08 07:33:00,
2013-03-08 01:43:00,17.8,16.1,30.41,ESE,116,1.0,3.0,93,0.00,SN,SN,0.00,WeatherDisplay:10.37,2013-03-08 07:43:00,
2013-03-08 01:53:00,17.6,15.9,30.41,SE,135,1.0,2.0,93,0.00,SN,SN,0.00,WeatherDisplay:10.37,2013-03-08 07:53:00,
2013-03-08 02:03:00,17.4,16.0,30.40,SE,126,1.0,2.0,94,0.00,SN,SN,0.00,WeatherDisplay:10.37,2013-03-08 08:03:00,
2013-03-08 02:13:00,17.2,15.8,30.40,ESE,107,0.0,3.0,94,0.00,SN,SN,0.00,WeatherDisplay:10.37,2013-03-08 08:13:00,
2013-03-08 02:23:00,17.4,16.0,30.40,East,99,0.0,2.0,94,0.00,SN,SN,0.00,WeatherDisplay:10.37,2013-03-08 08:23:00,
2013-03-08 02:33:00,17.6,16.4,30.40,SE,126,1.0,5.0,95,0.00,SN,SN,0.00,WeatherDisplay:10.37,2013-03-08 08:33:00,
2013-03-08 02:43:00,17.8,16.8,30.39,SE,125,2.0,6.0,96,0.00,SN,SN,0.00,WeatherDisplay:10.37,2013-03-08 08:43:00,
2013-03-08 02:53:00,17.7,17.0,30.39,East,99,2.0,6.0,97,0.00,SN,SN,0.00,WeatherDisplay:10.37,2013-03-08 08:53:00,
2013-03-08 03:03:00,17.8,17.1,30.39,ESE,111,2.0,5.0,97,0.00,SN,SN,0.00,WeatherDisplay:10.37,2013-03-08 09:03:00,
2013-03-08 03:13:00,17.4,17.0,30.39,East,96,1.0,5.0,98,0.00,SN,SN,0.00,WeatherDisplay:10.37,2013-03-08 09:13:00,
2013-03-08 03:23:00,17.4,17.0,30.39,SE,125,2.0,6.0,98,0.00,SN,SN,0.00,WeatherDisplay:10.37,2013-03-08 09:23:00,
2013-03-08 03:33:00,17.5,17.3,30.40,ESE,119,0.0,3.0,99,0.00,SN,SN,0.00,WeatherDisplay:10.37,2013-03-08 09:33:00,
2013-03-08 03:43:00,17.2,17.0,30.40,SE,125,0.0,2.0,99,0.00,SN,SN,0.00,WeatherDisplay:10.37,2013-03-08 09:43:00,
2013-03-08 03:53:00,16.8,16.3,30.40,East,79,0.0,1.0,98,0.00,SN,SN,0.00,WeatherDisplay:10.37,2013-03-08 09:53:00,
2013-03-08 04:03:00,16.7,16.2,30.40,NE,45,0.0,0.0,98,0.00,SN,SN,0.00,WeatherDisplay:10.37,2013-03-08 10:03:00,
2013-03-08 04:13:00,16.5,16.3,30.41,East,84,0.0,2.0,99,0.00,SN,SN,0.00,WeatherDisplay:10.37,2013-03-08 10:13:00,
2013-03-08 04:23:00,16.7,16.5,30.40,SE,135,0.0,2.0,99,0.00,SN,SN,0.00,WeatherDisplay:10.37,2013-03-08 10:23:00,
2013-03-08 04:33:00,16.2,15.9,30.41,SE,135,0.0,1.0,99,0.00,SN,SN,0.00,WeatherDisplay:10.37,2013-03-08 10:33:00,
2013-03-08 04:43:00,16.0,15.7,30.41,SE,135,0.0,1.0,99,0.00,SN,SN,0.00,WeatherDisplay:10.37,2013-03-08 10:43:00,
2013-03-08 04:53:00,16.2,15.9,30.40,SE,146,1.0,2.0,99,0.00,SN,SN,0.00,WeatherDisplay:10.37,2013-03-08 10:53:00,
2013-03-08 05:03:00,16.2,15.9,30.40,SE,135,1.0,2.0,99,0.00,SN,SN,0.00,WeatherDisplay:10.37,2013-03-08 11:03:00,
2013-03-08 05:13:00,15.8,15.6,30.40,SE,135,0.0,2.0,99,0.00,SN,SN,0.00,WeatherDisplay:10.37,2013-03-08 11:13:00,
2013-03-08 05:23:00,15.4,15.2,30.40,ESE,123,0.0,3.0,99,0.00,SN,SN,0.00,WeatherDisplay:10.37,2013-03-08 11:23:00,
2013-03-08 05:33:00,15.6,15.4,30.40,ESE,122,1.0,3.0,99,0.00,SN,SN,0.00,WeatherDisplay:10.37,2013-03-08 11:33:00,
2013-03-08 05:43:00,15.8,15.6,30.40,ESE,122,2.0,3.0,99,0.00,SN,SN,0.00,WeatherDisplay:10.37,2013-03-08 11:43:00,
2013-03-08 05:53:00,16.0,15.7,30.40,ESE,103,1.0,3.0,99,0.00,SN,SN,0.00,WeatherDisplay:10.37,2013-03-08 11:53:00,
2013-03-08 06:03:00,16.3,16.1,30.40,SE,131,2.0,5.0,99,0.00,SN,SN,0.00,WeatherDisplay:10.37,2013-03-08 12:03:00,
2013-03-08 06:13:00,17.0,16.8,30.40,SE,132,5.0,8.0,99,0.00,SN,SN,0.00,WeatherDisplay:10.37,2013-03-08 12:13:00,
2013-03-08 06:23:00,17.2,17.0,30.41,ESE,107,2.0,7.0,99,0.00,SN,SN,0.00,WeatherDisplay:10.37,2013-03-08 12:23:00,
2013-03-08 06:33:00,17.8,17.5,30.41,SE,136,3.0,7.0,99,0.00,SN,SN,0.00,WeatherDisplay:10.37,2013-03-08 12:33:00,
2013-03-08 06:43:00,18.0,17.7,30.41,SE,126,0.0,3.0,99,0.00,SN,SN,0.00,WeatherDisplay:10.37,2013-03-08 12:43:00,
2013-03-08 06:53:00,18.3,18.1,30.41,NE,56,0.0,2.0,99,0.00,SN,SN,0.00,WeatherDisplay:10.37,2013-03-08 12:53:00,
2013-03-08 07:03:00,18.7,18.4,30.41,ESE,123,2.0,6.0,99,0.00,SN,SN,0.00,WeatherDisplay:10.37,2013-03-08 13:03:00,
2013-03-08 07:13:00,19.4,19.2,30.41,SE,130,0.0,3.0,99,0.00,SN,SN,0.00,WeatherDisplay:10.37,2013-03-08 13:13:00,
2013-03-08 07:23:00,20.5,20.3,30.41,South,175,0.0,2.0,99,0.00,SN,SN,0.00,WeatherDisplay:10.37,2013-03-08 13:23:00,
2013-03-08 07:33:00,21.7,21.3,30.41,West,267,1.0,3.0,98,0.00,SN,SN,0.00,WeatherDisplay:10.37,2013-03-08 13:33:00,
2013-03-08 07:43:00,22.3,21.3,30.41,West,274,0.0,3.0,96,0.00,SN,SN,0.00,WeatherDisplay:10.37,2013-03-08 13:43:00,
2013-03-08 07:53:00,23.5,22.0,30.41,West,261,1.0,3.0,94,0.00,SN,SN,0.00,WeatherDisplay:10.37,2013-03-08 13:53:00,
2013-03-08 08:03:00,26.4,23.9,30.41,West,262,1.0,2.0,90,0.00,SN,SN,0.00,WeatherDisplay:10.37,2013-03-08 14:03:00,
2013-03-08 08:13:00,28.8,23.4,30.41,WNW,300,1.0,5.0,80,0.00,SN,SN,0.00,WeatherDisplay:10.37,2013-03-08 14:13:00,
2013-03-08 08:23:00,28.4,21.8,30.41,West,266,2.0,5.0,76,0.00,SN,SN,0.00,WeatherDisplay:10.37,2013-03-08 14:23:00,
2013-03-08 08:33:00,30.6,23.3,30.41,SSW,203,6.0,13.0,74,0.00,SN,SN,0.00,WeatherDisplay:10.37,2013-03-08 14:33:00,
2013-03-08 08:43:00,31.4,25.0,30.41,SE,135,6.0,10.0,77,0.00,SN,SN,0.00,WeatherDisplay:10.37,2013-03-08 14:43:00,
2013-03-08 08:53:00,32.2,24.8,30.41,SE,132,5.0,9.0,74,0.00,SN,SN,0.00,WeatherDisplay:10.37,2013-03-08 14:53:00,
2013-03-08 09:03:00,32.1,23.7,30.41,ESE,123,6.0,13.0,71,0.00,SN,SN,0.00,WeatherDisplay:10.37,2013-03-08 15:03:00,
2013-03-08 09:13:00,31.5,23.5,30.40,SE,137,8.0,15.0,72,0.00,SN,SN,0.00,WeatherDisplay:10.37,2013-03-08 15:13:00,
2013-03-08 09:23:00,32.4,24.0,30.40,SE,126,5.0,9.0,71,0.00,SN,SN,0.00,WeatherDisplay:10.37,2013-03-08 15:23:00,
2013-03-08 09:33:00,35.1,24.9,30.41,ESE,115,5.0,13.0,66,0.00,SN,SN,0.00,WeatherDisplay:10.37,2013-03-08 15:33:00,
2013-03-08 09:43:00,36.1,24.7,30.41,South,170,6.0,16.0,63,0.00,SN,SN,0.00,WeatherDisplay:10.37,2013-03-08 15:43:00,
2013-03-08 09:53:00,35.6,24.2,30.41,SE,143,7.0,16.0,63,0.00,SN,SN,0.00,WeatherDisplay:10.37,2013-03-08 15:53:00,
2013-03-08 10:03:00,33.6,23.8,30.40,SSE,160,7.0,17.0,67,0.00,SN,SN,0.00,WeatherDisplay:10.37,2013-03-08 16:03:00,
2013-03-08 10:13:00,34.8,24.2,30.41,SSE,166,7.0,14.0,65,0.00,SN,SN,0.00,WeatherDisplay:10.37,2013-03-08 16:13:00,
2013-03-08 10:23:00,36.3,26.1,30.41,SSE,161,3.0,14.0,66,0.00,SN,SN,0.00,WeatherDisplay:10.37,2013-03-08 16:23:00,
2013-03-08 10:33:00,36.1,25.5,30.40,SSE,150,7.0,17.0,65,0.00,SN,SN,0.00,WeatherDisplay:10.37,2013-03-08 16:33:00,
2013-03-08 10:43:00,37.0,25.6,30.40,SSE,158,8.0,16.0,63,0.00,SN,SN,0.00,WeatherDisplay:10.37,2013-03-08 16:43:00,
2013-03-08 10:53:00,37.7,26.3,30.40,South,180,3.0,16.0,63,0.00,SN,SN,0.00,WeatherDisplay:10.37,2013-03-08 16:53:00,
2013-03-08 11:03:00,39.2,25.6,30.40,South,170,7.0,18.0,58,0.00,SN,SN,0.00,WeatherDisplay:10.37,2013-03-08 17:03:00,
2013-03-08 11:13:00,37.8,25.9,30.40,South,180,8.0,24.0,62,0.00,SN,SN,0.00,WeatherDisplay:10.37,2013-03-08 17:13:00,
2013-03-08 11:23:00,39.5,26.3,30.40,SSE,165,8.0,16.0,59,0.00,SN,SN,0.00,WeatherDisplay:10.37,2013-03-08 17:23:00,
2013-03-08 11:33:00,38.7,26.4,30.40,SE,146,9.0,21.0,61,0.00,SN,SN,0.00,WeatherDisplay:10.37,2013-03-08 17:33:00,
2013-03-08 11:43:00,40.2,26.6,30.40,SSE,166,7.0,20.0,58,0.00,SN,SN,0.00,WeatherDisplay:10.37,2013-03-08 17:43:00,
2013-03-08 11:53:00,40.4,26.8,30.39,South,170,8.0,17.0,58,0.00,SN,SN,0.00,WeatherDisplay:10.37,2013-03-08 17:53:00,
2013-03-08 12:03:00,40.7,27.5,30.39,South,183,3.0,12.0,59,0.00,SN,SN,0.00,WeatherDisplay:10.37,2013-03-08 18:03:00,
2013-03-08 12:13:00,40.1,26.5,30.39,SSE,164,9.0,23.0,58,0.00,SN,SN,0.00,WeatherDisplay:10.37,2013-03-08 18:13:00,
2013-03-08 12:23:00,41.4,27.3,30.38,SSE,167,3.0,14.0,57,0.00,SN,SN,0.00,WeatherDisplay:10.37,2013-03-08 18:23:00,
2013-03-08 12:33:00,40.6,26.2,30.38,SSE,165,6.0,18.0,56,0.00,SN,SN,0.00,WeatherDisplay:10.37,2013-03-08 18:33:00,
2013-03-08 12:43:00,42.1,27.5,30.38,SW,227,5.0,16.0,56,0.00,SN,SN,0.00,WeatherDisplay:10.37,2013-03-08 18:43:00,
2013-03-08 12:53:00,41.9,26.0,30.38,South,176,8.0,17.0,53,0.00,SN,SN,0.00,WeatherDisplay:10.37,2013-03-08 18:53:00,
2013-03-08 13:03:00,41.9,26.5,30.37,South,172,7.0,20.0,54,0.00,SN,SN,0.00,WeatherDisplay:10.37,2013-03-08 19:03:00,
2013-03-08 13:13:00,41.2,26.2,30.36,South,169,7.0,16.0,55,0.00,SN,SN,0.00,WeatherDisplay:10.37,2013-03-08 19:13:00,
2013-03-08 13:23:00,42.4,26.5,30.36,South,188,5.0,14.0,53,0.00,SN,SN,0.00,WeatherDisplay:10.37,2013-03-08 19:23:00,
2013-03-08 13:33:00,41.2,26.3,30.36,SSW,210,8.0,16.0,55,0.00,SN,SN,0.00,WeatherDisplay:10.37,2013-03-08 19:33:00,
2013-03-08 13:43:00,41.7,26.7,30.36,South,178,3.0,13.0,55,0.00,SN,SN,0.00,WeatherDisplay:10.37,2013-03-08 19:43:00,
2013-03-08 13:53:00,42.4,27.0,30.34,South,177,5.0,15.0,54,0.00,SN,SN,0.00,WeatherDisplay:10.37,2013-03-08 19:53:00,
2013-03-08 14:03:00,41.5,26.6,30.35,SSE,162,8.0,18.0,55,0.00,SN,SN,0.00,WeatherDisplay:10.37,2013-03-08 20:03:00,
2013-03-08 14:13:00,41.6,26.6,30.34,South,169,9.0,16.0,55,0.00,SN,SN,0.00,WeatherDisplay:10.37,2013-03-08 20:13:00,
2013-03-08 14:23:00,41.3,27.2,30.34,SSE,158,5.0,15.0,57,0.00,SN,SN,0.00,WeatherDisplay:10.37,2013-03-08 20:23:00,
2013-03-08 14:33:00,43.2,27.7,30.34,South,189,2.0,9.0,54,0.00,SN,SN,0.00,WeatherDisplay:10.37,2013-03-08 20:33:00,
2013-03-08 14:43:00,43.0,26.6,30.34,South,190,7.0,18.0,52,0.00,SN,SN,0.00,WeatherDisplay:10.37,2013-03-08 20:43:00,
2013-03-08 14:53:00,41.8,26.8,30.34,South,176,2.0,16.0,55,0.00,SN,SN,0.00,WeatherDisplay:10.37,2013-03-08 20:53:00,
2013-03-08 15:03:00,42.1,27.1,30.34,South,191,3.0,15.0,55,0.00,SN,SN,0.00,WeatherDisplay:10.37,2013-03-08 21:03:00,
2013-03-08 15:13:00,42.3,26.8,30.34,SE,142,8.0,21.0,54,0.00,SN,SN,0.00,WeatherDisplay:10.37,2013-03-08 21:13:00,
2013-03-08 15:23:00,40.9,26.4,30.33,South,184,6.0,16.0,56,0.00,SN,SN,0.00,WeatherDisplay:10.37,2013-03-08 21:23:00,
2013-03-08 15:33:00,41.8,26.8,30.32,South,185,1.0,13.0,55,0.00,SN,SN,0.00,WeatherDisplay:10.37,2013-03-08 21:33:00,
2013-03-08 15:43:00,42.4,27.4,30.32,South,173,1.0,10.0,55,0.00,SN,SN,0.00,WeatherDisplay:10.37,2013-03-08 21:43:00,
2013-03-08 15:53:00,42.4,27.0,30.31,South,180,2.0,13.0,54,0.00,SN,SN,0.00,WeatherDisplay:10.37,2013-03-08 21:53:00,
2013-03-08 16:03:00,41.9,26.4,30.30,SSE,160,7.0,10.0,54,0.00,SN,SN,0.00,WeatherDisplay:10.37,2013-03-08 22:03:00,
2013-03-08 16:13:00,40.1,26.9,30.30,South,170,5.0,12.0,59,0.00,SN,SN,0.00,WeatherDisplay:10.37,2013-03-08 22:13:00,
2013-03-08 16:23:00,40.0,26.8,30.31,SSE,160,6.0,17.0,59,0.00,SN,SN,0.00,WeatherDisplay:10.37,2013-03-08 22:23:00,
2013-03-08 16:33:00,39.2,26.1,30.31,SSE,165,6.0,15.0,59,0.00,SN,SN,0.00,WeatherDisplay:10.37,2013-03-08 22:33:00,
2013-03-08 16:43:00,40.1,26.5,30.32,SSE,158,8.0,16.0,58,0.00,SN,SN,0.00,WeatherDisplay:10.37,2013-03-08 22:43:00,
2013-03-08 16:53:00,39.7,27.0,30.32,SSE,157,7.0,14.0,60,0.00,SN,SN,0.00,WeatherDisplay:10.37,2013-03-08 22:53:00,
2013-03-08 17:03:00,39.4,26.2,30.32,South,171,3.0,12.0,59,0.00,SN,SN,0.00,WeatherDisplay:10.37,2013-03-08 23:03:00,
2013-03-08 17:13:00,38.5,26.2,30.32,South,170,3.0,15.0,61,0.00,SN,SN,0.00,WeatherDisplay:10.37,2013-03-08 23:13:00,
2013-03-08 17:23:00,37.6,26.1,30.31,SSE,156,3.0,9.0,63,0.00,SN,SN,0.00,WeatherDisplay:10.37,2013-03-08 23:23:00,
2013-03-08 17:33:00,37.8,26.3,30.32,SSW,199,5.0,10.0,63,0.00,SN,SN,0.00,WeatherDisplay:10.37,2013-03-08 23:33:00,
2013-03-08 17:43:00,36.2,25.6,30.32,SSE,161,0.0,9.0,65,0.00,SN,SN,0.00,WeatherDisplay:10.37,2013-03-08 23:43:00,
2013-03-08 17:53:00,34.8,25.3,30.32,South,188,1.0,6.0,68,0.00,SN,SN,0.00,WeatherDisplay:10.37,2013-03-08 23:53:00,
2013-03-08 18:03:00,34.1,25.3,30.33,SSE,167,1.0,5.0,70,0.00,SN,SN,0.00,WeatherDisplay:10.37,2013-03-09 00:03:00,
2013-03-08 18:13:00,33.3,25.3,30.32,SSE,148,0.0,5.0,72,0.00,SN,SN,0.00,WeatherDisplay:10.37,2013-03-09 00:13:00,
2013-03-08 18:23:00,33.1,25.7,30.32,SSE,153,1.0,6.0,74,0.00,SN,SN,0.00,WeatherDisplay:10.37,2013-03-09 00:23:00,
2013-03-08 18:33:00,32.7,25.3,30.33,SSE,158,1.0,5.0,74,0.00,SN,SN,0.00,WeatherDisplay:10.37,2013-03-09 00:33:00,
2013-03-08 18:43:00,32.4,25.3,30.32,SE,144,0.0,5.0,75,0.00,SN,SN,0.00,WeatherDisplay:10.37,2013-03-09 00:43:00,
2013-03-08 18:53:00,32.1,25.4,30.32,SSE,159,2.0,6.0,76,0.00,SN,SN,0.00,WeatherDisplay:10.37,2013-03-09 00:53:00,
2013-03-08 19:03:00,31.6,25.3,30.32,SSE,166,0.0,6.0,77,0.00,SN,SN,0.00,WeatherDisplay:10.37,2013-03-09 01:03:00,
2013-03-08 19:13:00,31.5,25.7,30.32,SSE,158,1.0,5.0,79,0.00,SN,SN,0.00,WeatherDisplay:10.37,2013-03-09 01:13:00,
2013-03-08 19:23:00,31.1,25.0,30.31,ENE,71,1.0,2.0,78,0.00,SN,SN,0.00,WeatherDisplay:10.37,2013-03-09 01:23:00,
2013-03-08 19:33:00,31.1,25.7,30.31,SE,140,1.0,5.0,80,0.00,SN,SN,0.00,WeatherDisplay:10.37,2013-03-09 01:33:00,
2013-03-08 19:43:00,30.9,25.5,30.31,SSE,149,1.0,5.0,80,0.00,SN,SN,0.00,WeatherDisplay:10.37,2013-03-09 01:43:00,
2013-03-08 19:53:00,30.9,25.5,30.31,SE,136,0.0,2.0,80,0.00,SN,SN,0.00,WeatherDisplay:10.37,2013-03-09 01:53:00,
2013-03-08 20:03:00,31.1,26.0,30.30,SE,138,2.0,8.0,81,0.00,SN,SN,0.00,WeatherDisplay:10.37,2013-03-09 02:03:00,
2013-03-08 20:13:00,31.1,26.0,30.30,SE,141,0.0,7.0,81,0.00,SN,SN,0.00,WeatherDisplay:10.37,2013-03-09 02:13:00,
2013-03-08 20:23:00,30.9,25.8,30.30,ESE,120,2.0,6.0,81,0.00,SN,SN,0.00,WeatherDisplay:10.37,2013-03-09 02:23:00,
2013-03-08 20:33:00,30.6,25.4,30.29,ESE,110,3.0,7.0,81,0.00,SN,SN,0.00,WeatherDisplay:10.37,2013-03-09 02:33:00,
2013-03-08 20:43:00,30.2,25.1,30.29,ESE,123,1.0,6.0,81,0.00,SN,SN,0.00,WeatherDisplay:10.37,2013-03-09 02:43:00,
2013-03-08 20:53:00,29.8,25.0,30.30,East,100,2.0,7.0,82,0.00,SN,SN,0.00,WeatherDisplay:10.37,2013-03-09 02:53:00,
2013-03-08 21:03:00,29.5,24.7,30.29,ESE,109,2.0,5.0,82,0.00,SN,SN,0.00,WeatherDisplay:10.37,2013-03-09 03:03:00,
2013-03-08 21:13:00,29.2,24.6,30.29,ESE,117,3.0,8.0,83,0.00,SN,SN,0.00,WeatherDisplay:10.37,2013-03-09 03:13:00,
2013-03-08 21:23:00,28.9,24.7,30.29,SE,130,1.0,7.0,84,0.00,SN,SN,0.00,WeatherDisplay:10.37,2013-03-09 03:23:00,
2013-03-08 21:33:00,28.6,24.3,30.29,ESE,123,0.0,5.0,84,0.00,SN,SN,0.00,WeatherDisplay:10.37,2013-03-09 03:33:00,
2013-03-08 21:43:00,28.2,24.6,30.28,ESE,103,5.0,10.0,86,0.00,SN,SN,0.00,WeatherDisplay:10.37,2013-03-09 03:43:00,
2013-03-08 21:53:00,28.4,24.7,30.28,ESE,115,2.0,8.0,86,0.00,SN,SN,0.00,WeatherDisplay:10.37,2013-03-09 03:53:00,
2013-03-08 22:03:00,28.4,24.7,30.27,SE,126,6.0,10.0,86,0.00,SN,SN,0.00,WeatherDisplay:10.37,2013-03-09 04:03:00,
2013-03-08 22:13:00,28.2,24.3,30.27,ESE,113,5.0,8.0,85,0.00,SN,SN,0.00,WeatherDisplay:10.37,2013-03-09 04:13:00,
2013-03-08 22:23:00,28.0,24.4,30.26,ESE,104,2.0,9.0,86,0.00,SN,SN,0.00,WeatherDisplay:10.37,2013-03-09 04:23:00,
2013-03-08 22:33:00,28.2,24.6,30.26,ESE,118,0.0,9.0,86,0.00,SN,SN,0.00,WeatherDisplay:10.37,2013-03-09 04:33:00,
2013-03-08 22:43:00,28.8,25.1,30.26,ESE,118,3.0,12.0,86,0.00,SN,SN,0.00,WeatherDisplay:10.37,2013-03-09 04:43:00,
2013-03-08 22:53:00,29.0,25.1,30.25,ESE,111,1.0,9.0,85,0.00,SN,SN,0.00,WeatherDisplay:10.37,2013-03-09 04:53:00,
2013-03-08 23:03:00,29.1,25.2,30.25,ESE,123,5.0,10.0,85,0.00,SN,SN,0.00,WeatherDisplay:10.37,2013-03-09 05:03:00,
2013-03-08 23:13:00,29.3,25.1,30.24,SE,130,0.0,8.0,84,0.00,SN,SN,0.00,WeatherDisplay:10.37,2013-03-09 05:13:00,
2013-03-08 23:23:00,29.7,25.4,30.24,ESE,122,2.0,10.0,84,0.00,SN,SN,0.00,WeatherDisplay:10.37,2013-03-09 05:23:00,
2013-03-08 23:33:00,29.7,25.4,30.24,SE,141,3.0,15.0,84,0.00,SN,SN,0.00,WeatherDisplay:10.37,2013-03-09 05:33:00,
2013-03-08 23:43:00,30.2,25.4,30.24,SSE,153,3.0,13.0,82,0.00,SN,SN,0.00,WeatherDisplay:10.37,2013-03-09 05:43:00,
2013-03-08 23:53:00,30.4,25.2,30.24,South,177,5.0,16.0,81,0.00,SN,SN,0.00,WeatherDisplay:10.37,2013-03-09 05:53:00,